Time;durP1;ratioP1;P1;durP2;ratioP2;P2;SDS_P1;SDS_P2;PMS_P1;PMS_P2;Temp;Humidity;BMP_temperature;BMP_pressure;BME280_temperature;BME280_humidity;BME280_pressure;Samples;Min_cycle;Max_cycle;Signal;HPM_P1;HPM_P2
2023/09/11 00:00:34;;;;;;;19.90;5.53;;;18.70;99.90;;;;;;5070585;28;20028;-85
2023/09/11 00:02:59;;;;;;;34.08;6.03;;;18.60;99.90;;;;;;5069624;28;20052;-86
2023/09/11 00:05:25;;;;;;;20.63;5.07;;;18.60;99.90;;;;;;5070329;28;20085;-86
2023/09/11 00:07:51;;;;;;;26.45;4.82;;;18.60;99.90;;;;;;5070673;28;20032;-84
2023/09/11 00:10:17;;;;;;;22.50;5.30;;;18.60;99.90;;;;;;5068992;28;20036;-85
2023/09/11 00:12:42;;;;;;;26.70;5.22;;;18.60;99.90;;;;;;5068758;28;20059;-84
2023/09/11 00:15:09;;;;;;;27.90;4.75;;;18.60;99.90;;;;;;5069741;28;20072;-81
2023/09/11 00:17:34;;;;;;;22.92;4.95;;;18.50;99.90;;;;;;5068993;28;20866;-85
2023/09/11 00:20:00;;;;;;;30.40;6.55;;;18.50;99.90;;;;;;5069603;28;20036;-85
2023/09/11 00:22:25;;;;;;;19.95;5.43;;;18.50;99.90;;;;;;5070002;28;20417;-84
2023/09/11 00:24:51;;;;;;;26.73;4.95;;;18.50;99.90;;;;;;5069771;28;20059;-83
2023/09/11 00:27:17;;;;;;;24.85;5.75;;;18.50;99.90;;;;;;5069571;28;20043;-83
2023/09/11 00:29:42;;;;;;;26.63;4.43;;;18.50;99.90;;;;;;5068462;28;20083;-83
2023/09/11 00:32:08;;;;;;;21.30;5.25;;;18.50;99.90;;;;;;5069251;28;20105;-85
2023/09/11 00:34:34;;;;;;;27.83;6.05;;;18.50;99.90;;;;;;5068535;28;20123;-83
2023/09/11 00:36:59;;;;;;;29.40;5.50;;;18.50;99.90;;;;;;5069635;28;20028;-82
2023/09/11 00:39:26;;;;;;;19.50;5.35;;;18.50;99.90;;;;;;5068332;28;20431;-84
2023/09/11 00:41:51;;;;;;;25.63;6.50;;;18.40;99.90;;;;;;5069914;28;20544;-83
2023/09/11 00:44:17;;;;;;;33.92;4.75;;;18.50;99.90;;;;;;5068346;28;20123;-84
2023/09/11 00:46:43;;;;;;;22.48;5.13;;;18.40;99.90;;;;;;5069415;28;20037;-85
2023/09/11 00:49:09;;;;;;;21.42;5.00;;;18.40;99.90;;;;;;5068723;28;20040;-85
2023/09/11 00:51:36;;;;;;;25.88;5.07;;;18.40;99.90;;;;;;5068711;28;20075;-84
2023/09/11 00:54:02;;;;;;;17.33;5.13;;;18.30;99.90;;;;;;5070553;28;20074;-88
2023/09/11 00:56:27;;;;;;;27.45;5.30;;;18.30;99.90;;;;;;5069322;28;20036;-85
2023/09/11 00:58:53;;;;;;;23.60;4.57;;;18.30;99.90;;;;;;5071145;28;20489;-86
2023/09/11 01:01:21;;;;;;;24.35;5.68;;;18.20;99.90;;;;;;5068121;28;20040;-84
2023/09/11 01:03:47;;;;;;;25.58;4.60;;;18.10;99.90;;;;;;5067945;28;20054;-84
2023/09/11 01:06:13;;;;;;;27.55;5.25;;;18.20;99.90;;;;;;5069134;28;20051;-83
2023/09/11 01:08:39;;;;;;;28.45;5.45;;;18.10;99.90;;;;;;5067926;28;20044;-83
2023/09/11 01:11:05;;;;;;;26.17;4.75;;;18.20;99.90;;;;;;5069289;28;20040;-83
2023/09/11 01:13:31;;;;;;;27.15;5.07;;;18.10;99.90;;;;;;5069363;28;20024;-84
2023/09/11 01:16:06;;;;;;;26.60;4.68;;;18.10;99.90;;;;;;5069273;28;20075;-83
2023/09/11 01:18:55;;;;;;;25.42;4.47;;;18.20;99.90;;;;;;5069504;28;20063;-84
2023/09/11 01:21:36;;;;;;;26.50;4.82;;;18.20;99.90;;;;;;5069247;28;20020;-85
2023/09/11 01:24:02;;;;;;;26.00;5.32;;;18.20;99.90;;;;;;5070066;28;20123;-85
2023/09/11 01:26:33;;;;;;;21.13;5.25;;;18.10;99.90;;;;;;5069312;28;20124;-83
2023/09/11 01:29:08;;;;;;;26.55;5.30;;;18.10;99.90;;;;;;5069723;28;20103;-83
2023/09/11 01:31:35;;;;;;;23.75;4.65;;;18.00;99.90;;;;;;5072178;28;20048;-83
2023/09/11 01:34:05;;;;;;;26.02;6.03;;;18.00;99.90;;;;;;5073748;28;20086;-85
2023/09/11 01:36:31;;;;;;;36.63;6.03;;;17.90;99.90;;;;;;5073975;28;20044;-86
2023/09/11 01:38:57;;;;;;;32.08;6.72;;;17.80;99.90;;;;;;5074163;28;20032;-86
2023/09/11 01:41:30;;;;;;;32.22;4.90;;;17.80;99.90;;;;;;5071739;28;20039;-85
2023/09/11 01:43:58;;;;;;;40.00;5.20;;;17.90;99.90;;;;;;5071026;28;20028;-87
2023/09/11 01:46:25;;;;;;;30.38;6.13;;;17.80;99.90;;;;;;5072656;28;20120;-85
2023/09/11 01:48:51;;;;;;;21.42;5.25;;;17.70;99.90;;;;;;5073380;28;20023;-84
2023/09/11 01:51:18;;;;;;;25.70;4.80;;;17.80;99.90;;;;;;5071739;28;20036;-85
2023/09/11 01:53:44;;;;;;;30.35;5.03;;;17.80;99.90;;;;;;5071775;28;20027;-85
2023/09/11 01:56:10;;;;;;;33.28;6.32;;;17.80;99.90;;;;;;5073227;28;20028;-87
2023/09/11 01:58:36;;;;;;;40.50;5.82;;;17.80;99.90;;;;;;5073679;28;20565;-84
2023/09/11 02:01:02;;;;;;;24.35;4.78;;;17.90;99.90;;;;;;5072808;28;20017;-87
2023/09/11 02:03:27;;;;;;;21.90;5.03;;;17.90;99.90;;;;;;5073064;28;20035;-83
2023/09/11 02:05:54;;;;;;;26.67;4.90;;;17.90;99.90;;;;;;5071406;28;20037;-83
2023/09/11 02:08:20;;;;;;;27.95;5.28;;;17.90;99.90;;;;;;5071462;28;20028;-84
2023/09/11 02:10:46;;;;;;;28.33;5.13;;;17.80;99.90;;;;;;5072258;28;20036;-87
2023/09/11 02:13:12;;;;;;;28.65;5.80;;;17.80;99.90;;;;;;5071385;28;20044;-84
2023/09/11 02:15:38;;;;;;;35.47;5.43;;;17.80;99.90;;;;;;5071093;28;20053;-85
2023/09/11 02:18:03;;;;;;;28.33;4.93;;;17.80;99.90;;;;;;5072845;28;20033;-86
2023/09/11 02:20:29;;;;;;;33.67;5.47;;;17.80;99.90;;;;;;5072409;28;20083;-86
2023/09/11 02:22:55;;;;;;;18.88;4.95;;;17.80;99.90;;;;;;5070845;28;20121;-85
2023/09/11 02:25:20;;;;;;;30.33;5.53;;;17.80;99.90;;;;;;5069892;28;20025;-83
2023/09/11 02:27:46;;;;;;;29.33;4.53;;;17.80;99.90;;;;;;5071034;28;20404;-86
2023/09/11 02:30:12;;;;;;;28.92;5.57;;;17.80;99.90;;;;;;5070951;28;20078;-86
2023/09/11 02:32:37;;;;;;;28.48;4.97;;;17.70;99.90;;;;;;5070747;28;20489;-85
2023/09/11 02:35:03;;;;;;;23.50;5.20;;;17.70;99.90;;;;;;5072737;28;20493;-85
2023/09/11 02:37:29;;;;;;;24.55;4.97;;;17.70;99.90;;;;;;5071459;28;20028;-85
2023/09/11 02:39:55;;;;;;;32.00;5.72;;;17.70;99.90;;;;;;5071562;28;20435;-83
2023/09/11 02:42:20;;;;;;;33.22;5.90;;;17.70;99.90;;;;;;5071239;28;20063;-86
2023/09/11 02:44:46;;;;;;;27.65;4.55;;;17.60;99.90;;;;;;5073227;28;20027;-86
2023/09/11 02:47:12;;;;;;;29.60;5.00;;;17.60;99.90;;;;;;5072137;28;20082;-84
2023/09/11 02:49:37;;;;;;;16.75;4.32;;;17.60;99.90;;;;;;5072110;28;20032;-85
2023/09/11 02:52:03;;;;;;;23.40;6.00;;;17.50;99.90;;;;;;5071472;28;20044;-86
2023/09/11 02:54:29;;;;;;;32.13;5.70;;;17.50;99.90;;;;;;5070958;28;20024;-85
2023/09/11 02:56:54;;;;;;;32.10;6.53;;;17.50;99.90;;;;;;5072367;28;20105;-84
2023/09/11 02:59:20;;;;;;;27.58;5.43;;;17.50;99.90;;;;;;5071360;28;20025;-85
2023/09/11 03:01:45;;;;;;;25.90;5.53;;;17.40;99.90;;;;;;5071490;28;20044;-83
2023/09/11 03:04:11;;;;;;;28.85;5.68;;;17.50;99.90;;;;;;5070352;28;20021;-85
2023/09/11 03:06:37;;;;;;;25.13;4.70;;;17.40;99.90;;;;;;5070943;28;20063;-84
2023/09/11 03:09:05;;;;;;;28.45;5.72;;;17.40;99.90;;;;;;5071531;28;20533;-84
2023/09/11 03:11:31;;;;;;;24.42;4.68;;;17.40;99.90;;;;;;5070966;28;20037;-84
2023/09/11 03:13:56;;;;;;;24.60;4.28;;;17.30;99.90;;;;;;5070863;28;20543;-86
2023/09/11 03:16:22;;;;;;;28.15;5.90;;;17.40;99.90;;;;;;5070264;28;20052;-87
2023/09/11 03:18:47;;;;;;;32.90;5.32;;;17.30;99.90;;;;;;5070781;28;20563;-86
2023/09/11 03:21:13;;;;;;;34.75;5.18;;;17.20;99.90;;;;;;5070876;28;20560;-84
2023/09/11 03:23:39;;;;;;;32.05;5.20;;;17.20;99.90;;;;;;5070675;28;20056;-86
2023/09/11 03:26:12;;;;;;;31.77;5.63;;;17.20;99.90;;;;;;5072187;28;20063;-85
2023/09/11 03:28:38;;;;;;;36.08;5.72;;;17.20;99.90;;;;;;5071467;28;20514;-85
2023/09/11 03:31:03;;;;;;;35.70;6.05;;;17.20;99.90;;;;;;5070175;28;20044;-85
2023/09/11 03:33:29;;;;;;;18.42;4.72;;;17.10;99.90;;;;;;5071986;28;20021;-85
2023/09/11 03:35:55;;;;;;;34.00;6.50;;;17.10;99.90;;;;;;5071785;28;20028;-81
2023/09/11 03:38:20;;;;;;;30.20;5.20;;;17.00;99.90;;;;;;5070897;28;20090;-84
2023/09/11 03:40:46;;;;;;;33.20;6.53;;;17.00;99.90;;;;;;5071347;28;20029;-86
2023/09/11 03:43:12;;;;;;;38.53;5.40;;;17.00;99.90;;;;;;5070171;28;20151;-85
2023/09/11 03:45:38;;;;;;;34.75;6.78;;;16.90;99.90;;;;;;5069578;28;20143;-84
2023/09/11 03:48:04;;;;;;;27.80;5.43;;;16.90;99.90;;;;;;5070203;28;20747;-86
2023/09/11 03:50:29;;;;;;;26.38;5.68;;;16.90;99.90;;;;;;5070089;28;20036;-86
2023/09/11 03:52:55;;;;;;;30.63;5.95;;;16.90;99.90;;;;;;5068390;28;20044;-85
2023/09/11 03:55:21;;;;;;;34.58;5.55;;;16.80;99.90;;;;;;5071455;28;20528;-83
2023/09/11 03:57:46;;;;;;;23.65;5.53;;;16.80;99.90;;;;;;5070785;28;20028;-83
2023/09/11 04:00:12;;;;;;;22.67;5.13;;;16.80;99.90;;;;;;5071178;28;20024;-83
2023/09/11 04:02:38;;;;;;;33.63;5.93;;;16.80;99.90;;;;;;5069406;28;20056;-84
2023/09/11 04:05:05;;;;;;;23.35;5.07;;;16.80;99.90;;;;;;5070396;28;20053;-84
2023/09/11 04:07:32;;;;;;;28.48;5.93;;;16.90;99.90;;;;;;5071011;28;20074;-84
2023/09/11 04:09:58;;;;;;;27.92;6.38;;;16.90;99.90;;;;;;5069745;28;20043;-85
2023/09/11 04:12:24;;;;;;;22.13;4.75;;;16.90;99.90;;;;;;5069183;28;20683;-87
2023/09/11 04:14:49;;;;;;;29.23;5.57;;;16.90;99.90;;;;;;5069631;28;20115;-83
2023/09/11 04:17:15;;;;;;;17.17;4.47;;;16.90;99.90;;;;;;5069051;28;20072;-86
2023/09/11 04:19:41;;;;;;;25.90;5.65;;;16.90;99.90;;;;;;5071053;28;20024;-85
2023/09/11 04:22:06;;;;;;;26.85;6.40;;;16.90;99.90;;;;;;5069145;28;20021;-83
2023/09/11 04:24:32;;;;;;;25.85;5.25;;;16.90;99.90;;;;;;5069329;28;20286;-79
2023/09/11 04:26:58;;;;;;;26.98;5.88;;;16.90;99.90;;;;;;5069049;28;20086;-78
2023/09/11 04:29:24;;;;;;;31.83;5.85;;;17.00;99.90;;;;;;5067608;28;20036;-79
2023/09/11 04:31:50;;;;;;;31.83;4.82;;;16.90;99.90;;;;;;5068591;28;20059;-80
2023/09/11 04:34:18;;;;;;;32.20;5.68;;;17.00;99.90;;;;;;5068899;28;20544;-82
2023/09/11 04:36:44;;;;;;;32.15;6.35;;;17.00;99.90;;;;;;5068707;28;20021;-80
2023/09/11 04:39:12;;;;;;;36.40;4.95;;;17.10;99.90;;;;;;5067412;28;20558;-82
2023/09/11 04:41:37;;;;;;;16.92;4.53;;;17.20;99.90;;;;;;5068655;28;20032;-78
2023/09/11 04:44:03;;;;;;;30.13;5.93;;;17.20;99.90;;;;;;5067013;28;20446;-79
2023/09/11 04:46:29;;;;;;;24.13;4.43;;;17.30;99.90;;;;;;5067369;28;20024;-78
2023/09/11 04:48:55;;;;;;;21.05;4.53;;;17.40;99.90;;;;;;5068627;28;20423;-78
2023/09/11 04:51:21;;;;;;;31.75;5.40;;;17.40;99.90;;;;;;5068559;28;20032;-82
2023/09/11 04:53:47;;;;;;;24.27;4.43;;;17.50;99.90;;;;;;5068509;28;20097;-77
2023/09/11 04:56:13;;;;;;;26.15;5.35;;;17.70;99.90;;;;;;5068713;28;20097;-79
2023/09/11 04:58:39;;;;;;;23.85;5.70;;;17.90;99.90;;;;;;5068799;28;20467;-79
2023/09/11 05:01:05;;;;;;;31.45;4.43;;;18.10;99.90;;;;;;5068673;28;20489;-78
2023/09/11 05:03:30;;;;;;;21.83;5.13;;;18.20;99.90;;;;;;5068528;28;20086;-79
2023/09/11 05:05:56;;;;;;;32.13;5.45;;;18.30;99.90;;;;;;5066775;28;20032;-79
2023/09/11 05:08:21;;;;;;;35.30;4.90;;;18.30;99.90;;;;;;5067092;28;20035;-79
2023/09/11 05:10:47;;;;;;;28.67;5.28;;;18.40;99.90;;;;;;5067089;28;20024;-79
2023/09/11 05:13:14;;;;;;;20.00;3.85;;;18.50;99.90;;;;;;5066998;28;20568;-78
2023/09/11 05:15:39;;;;;;;36.50;5.00;;;18.60;99.90;;;;;;5067863;28;20043;-80
2023/09/11 05:18:05;;;;;;;32.72;4.65;;;18.70;99.90;;;;;;5066995;28;20028;-76
2023/09/11 05:20:31;;;;;;;20.58;4.22;;;18.90;99.90;;;;;;5067127;28;20475;-77
2023/09/11 05:22:57;;;;;;;31.35;4.78;;;19.40;99.90;;;;;;5066796;28;20029;-76
2023/09/11 05:25:23;;;;;;;17.02;4.72;;;19.90;99.90;;;;;;5067017;28;20035;-80
2023/09/11 05:27:49;;;;;;;21.95;4.20;;;20.40;99.90;;;;;;5068199;28;20444;-79
2023/09/11 05:30:15;;;;;;;18.08;4.05;;;20.80;99.90;;;;;;5068017;28;20037;-79
2023/09/11 05:32:41;;;;;;;19.30;4.82;;;21.20;99.90;;;;;;5068288;28;20040;-79
2023/09/11 05:35:07;;;;;;;16.15;4.32;;;21.50;99.90;;;;;;5066704;28;20031;-78
2023/09/11 05:37:33;;;;;;;27.75;4.88;;;21.90;99.90;;;;;;5068358;28;20039;-76
2023/09/11 05:40:00;;;;;;;24.48;4.18;;;22.20;99.90;;;;;;5066945;28;20032;-77
2023/09/11 05:42:26;;;;;;;24.17;4.38;;;22.40;99.90;;;;;;5068283;28;20024;-77
2023/09/11 05:44:52;;;;;;;18.83;3.63;;;22.70;99.90;;;;;;5068038;28;20029;-76
2023/09/11 05:47:19;;;;;;;20.92;4.30;;;22.80;99.50;;;;;;5076809;28;20028;-76
2023/09/11 05:49:45;;;;;;;32.70;4.70;;;23.00;99.40;;;;;;5087338;28;20452;-77
2023/09/11 05:52:10;;;;;;;27.27;5.28;;;23.20;98.30;;;;;;5070506;28;20570;-77
2023/09/11 05:54:36;;;;;;;15.38;4.15;;;23.40;97.30;;;;;;5067802;28;20032;-77
2023/09/11 05:57:03;;;;;;;27.60;4.93;;;23.20;96.90;;;;;;5066746;28;20040;-78
2023/09/11 05:59:28;;;;;;;18.27;4.70;;;23.20;96.90;;;;;;5066773;28;20397;-77
2023/09/11 06:01:54;;;;;;;19.67;4.45;;;23.40;96.80;;;;;;5067721;28;20071;-78
2023/09/11 06:04:20;;;;;;;24.42;4.60;;;23.50;96.30;;;;;;5066522;28;20024;-78
2023/09/11 06:06:45;;;;;;;15.57;4.68;;;23.60;96.40;;;;;;5066711;28;20032;-77
2023/09/11 06:09:11;;;;;;;24.48;5.20;;;23.70;96.10;;;;;;5066655;28;20032;-77
2023/09/11 06:11:37;;;;;;;20.45;5.78;;;23.80;95.80;;;;;;5067701;28;20113;-77
2023/09/11 06:14:05;;;;;;;16.45;4.72;;;24.30;95.40;;;;;;5069826;28;20031;-79
2023/09/11 06:16:30;;;;;;;24.90;4.95;;;24.80;92.10;;;;;;5085665;28;20063;-79
2023/09/11 06:18:58;;;;;;;19.88;4.28;;;25.30;91.10;;;;;;5091639;28;20073;-77
2023/09/11 06:21:24;;;;;;;22.90;5.20;;;25.90;90.40;;;;;;5091688;28;20078;-78
2023/09/11 06:23:49;;;;;;;15.13;4.72;;;26.50;86.00;;;;;;5091466;28;20024;-78
2023/09/11 06:26:15;;;;;;;17.70;5.32;;;27.00;81.20;;;;;;5091638;28;20089;-77
2023/09/11 06:28:42;;;;;;;24.80;5.45;;;27.60;76.50;;;;;;5090423;28;20036;-77
2023/09/11 06:31:08;;;;;;;11.68;4.28;;;28.00;73.40;;;;;;5091821;28;20032;-79
2023/09/11 06:33:34;;;;;;;13.98;4.90;;;28.40;71.30;;;;;;5090199;28;20044;-79
2023/09/11 06:36:00;;;;;;;23.70;4.60;;;28.70;70.70;;;;;;5091596;28;20020;-79
2023/09/11 06:38:25;;;;;;;33.40;6.90;;;29.00;69.10;;;;;;5091445;28;20042;-78
2023/09/11 06:40:51;;;;;;;24.02;5.00;;;29.40;66.40;;;;;;5090044;28;20024;-79
2023/09/11 06:43:16;;;;;;;21.42;5.70;;;29.80;64.10;;;;;;5091109;28;20035;-79
2023/09/11 06:45:42;;;;;;;21.75;4.63;;;30.30;61.50;;;;;;5091110;28;20522;-78
2023/09/11 06:48:11;;;;;;;17.70;5.40;;;30.80;59.30;;;;;;5091050;28;20652;-78
2023/09/11 06:50:38;;;;;;;24.88;6.18;;;31.10;58.50;;;;;;5082155;28;20020;-78
2023/09/11 06:53:07;;;;;;;24.90;5.57;;;31.20;58.40;;;;;;5087373;28;20061;-78
2023/09/11 06:55:33;;;;;;;20.05;5.65;;;31.40;57.60;;;;;;5090895;28;20027;-79
2023/09/11 06:58:00;;;;;;;19.83;5.30;;;31.70;55.20;;;;;;5090783;28;20397;-79
2023/09/11 07:00:26;;;;;;;15.48;5.68;;;32.00;54.30;;;;;;5089596;28;20077;-79
2023/09/11 07:02:51;;;;;;;20.75;5.25;;;32.40;53.10;;;;;;5090831;28;20396;-79
2023/09/11 07:05:18;;;;;;;26.20;5.97;;;32.40;52.50;;;;;;5090553;28;20039;-78
2023/09/11 07:07:44;;;;;;;24.00;6.10;;;32.60;51.60;;;;;;5091107;28;20039;-79
2023/09/11 07:10:11;;;;;;;26.30;5.55;;;32.50;51.60;;;;;;5089870;28;20024;-78
2023/09/11 07:12:38;;;;;;;28.92;6.50;;;32.50;51.60;;;;;;5089274;28;20071;-78
2023/09/11 07:15:05;;;;;;;38.25;7.43;;;32.50;51.30;;;;;;5090241;28;20044;-78
2023/09/11 07:17:30;;;;;;;23.75;6.07;;;32.80;51.00;;;;;;5089554;28;20040;-78
2023/09/11 07:19:56;;;;;;;28.98;7.88;;;33.30;49.40;;;;;;5090106;28;20027;-79
2023/09/11 07:22:22;;;;;;;30.88;7.68;;;33.80;48.30;;;;;;5089159;28;20040;-78
2023/09/11 07:24:47;;;;;;;28.45;6.38;;;34.00;47.60;;;;;;5089225;28;20141;-78
2023/09/11 07:27:13;;;;;;;27.58;7.00;;;34.30;47.20;;;;;;5090045;28;20239;-78
2023/09/11 07:29:40;;;;;;;35.60;6.15;;;34.60;45.90;;;;;;5089982;28;20143;-79
2023/09/11 07:32:06;;;;;;;29.88;6.22;;;34.80;45.70;;;;;;5088902;28;20040;-78
2023/09/11 07:34:32;;;;;;;25.73;5.97;;;35.00;44.30;;;;;;5090040;28;20111;-79
2023/09/11 07:36:58;;;;;;;26.55;5.97;;;35.20;43.80;;;;;;5089736;28;20075;-79
2023/09/11 07:39:24;;;;;;;26.00;5.10;;;35.30;43.70;;;;;;5090058;28;20109;-78
2023/09/11 07:41:49;;;;;;;22.95;5.78;;;35.60;42.80;;;;;;5089627;28;20448;-79
2023/09/11 07:44:15;;;;;;;18.00;4.65;;;35.70;42.00;;;;;;5088029;28;20020;-79
2023/09/11 07:46:41;;;;;;;23.00;5.53;;;35.80;42.20;;;;;;5089961;28;20028;-79
2023/09/11 07:49:06;;;;;;;26.85;5.03;;;36.20;41.30;;;;;;5088154;28;20082;-79
2023/09/11 07:51:32;;;;;;;23.48;5.13;;;36.50;41.60;;;;;;5088194;28;20046;-78
2023/09/11 07:53:59;;;;;;;31.55;5.43;;;36.40;40.20;;;;;;5089645;28;20024;-78
2023/09/11 07:56:25;;;;;;;28.35;5.70;;;36.70;40.70;;;;;;5089699;28;20290;-79
2023/09/11 07:58:51;;;;;;;23.98;4.88;;;36.70;40.30;;;;;;5089446;28;20024;-79
2023/09/11 08:01:21;;;;;;;23.63;5.63;;;36.80;40.00;;;;;;5088285;28;20024;-79
2023/09/11 08:03:47;;;;;;;26.38;5.68;;;37.00;40.40;;;;;;5089549;28;20054;-78
2023/09/11 08:06:14;;;;;;;18.35;5.47;;;37.30;40.10;;;;;;5088087;28;20369;-79
2023/09/11 08:08:39;;;;;;;23.27;4.97;;;37.30;40.30;;;;;;5089459;28;20036;-79
2023/09/11 08:11:16;;;;;;;25.95;6.18;;;37.10;39.80;;;;;;5088185;28;20442;-78
2023/09/11 08:13:46;;;;;;;21.98;5.72;;;37.30;40.10;;;;;;5088069;28;20108;-78
2023/09/11 08:16:13;;;;;;;23.77;5.28;;;37.00;39.80;;;;;;5088066;28;20048;-79
2023/09/11 08:18:38;;;;;;;18.60;4.75;;;37.30;40.50;;;;;;5087944;28;20446;-80
2023/09/11 08:21:04;;;;;;;21.58;5.07;;;37.30;39.20;;;;;;5089348;28;20032;-78
2023/09/11 08:23:30;;;;;;;19.63;4.38;;;37.60;38.40;;;;;;5087749;28;20024;-79
2023/09/11 08:25:57;;;;;;;12.98;3.83;;;37.50;38.20;;;;;;5087500;28;20035;-79
2023/09/11 08:28:22;;;;;;;14.75;4.78;;;37.60;37.50;;;;;;5089109;28;20505;-79
2023/09/11 08:30:50;;;;;;;11.88;4.10;;;37.70;36.50;;;;;;5089226;28;20074;-79
2023/09/11 08:33:16;;;;;;;15.93;4.78;;;37.90;35.50;;;;;;5089067;28;20512;-79
2023/09/11 08:35:42;;;;;;;24.52;5.88;;;37.50;36.50;;;;;;5087721;28;20523;-79
2023/09/11 08:38:08;;;;;;;16.40;4.78;;;37.30;36.90;;;;;;5086643;28;20024;-78
2023/09/11 08:40:34;;;;;;;21.45;4.93;;;37.40;37.10;;;;;;5087035;28;20244;-78
2023/09/11 08:43:02;;;;;;;20.88;5.32;;;37.60;36.30;;;;;;5086998;28;20107;-79
2023/09/11 08:45:28;;;;;;;19.63;4.40;;;37.80;36.60;;;;;;5087454;28;20173;-78
2023/09/11 08:47:56;;;;;;;14.10;4.78;;;37.80;36.30;;;;;;5087828;28;20111;-78
2023/09/11 08:50:31;;;;;;;18.27;5.28;;;38.20;35.90;;;;;;5088293;28;20126;-79
2023/09/11 08:53:01;;;;;;;11.38;4.40;;;38.20;35.30;;;;;;5087060;28;20055;-78
2023/09/11 08:55:28;;;;;;;12.38;3.92;;;37.90;36.20;;;;;;5086398;28;20035;-79
2023/09/11 08:57:57;;;;;;;11.82;3.67;;;38.10;36.30;;;;;;5086960;28;20032;-79
2023/09/11 09:00:24;;;;;;;17.00;4.72;;;38.10;35.40;;;;;;5086286;28;20028;-78
2023/09/11 09:02:51;;;;;;;15.23;3.80;;;38.20;36.00;;;;;;5068568;28;20020;-79
2023/09/11 09:05:19;;;;;;;15.07;3.83;;;38.40;35.20;;;;;;5085868;28;20024;-79
2023/09/11 09:07:45;;;;;;;13.07;4.32;;;38.40;35.80;;;;;;5082072;28;20032;-79
2023/09/11 09:10:11;;;;;;;10.88;4.22;;;38.50;35.30;;;;;;5076292;28;20131;-79
2023/09/11 09:12:39;;;;;;;9.80;3.30;;;38.40;35.20;;;;;;5066896;28;20468;-79
2023/09/11 09:15:06;;;;;;;11.43;3.33;;;38.40;35.80;;;;;;5068079;28;20089;-79
2023/09/11 09:17:31;;;;;;;9.60;3.60;;;38.60;34.30;;;;;;5083861;28;20033;-78
2023/09/11 09:19:57;;;;;;;13.45;3.38;;;38.50;35.20;;;;;;5068036;28;20026;-79
2023/09/11 09:22:23;;;;;;;8.63;3.50;;;38.50;34.10;;;;;;5067988;28;20489;-79
2023/09/11 09:24:51;;;;;;;9.55;3.97;;;38.70;33.60;;;;;;5083880;28;20493;-79
2023/09/11 09:27:18;;;;;;;13.65;3.92;;;38.80;32.90;;;;;;5066662;28;20512;-79
2023/09/11 09:29:44;;;;;;;6.97;3.67;;;38.60;33.00;;;;;;5066538;28;20062;-79
2023/09/11 09:32:10;;;;;;;18.95;5.07;;;38.60;34.30;;;;;;5068121;28;20039;-79
2023/09/11 09:34:41;;;;;;;10.13;4.13;;;38.60;34.10;;;;;;5068467;28;20110;-78
2023/09/11 09:37:14;;;;;;;9.10;3.75;;;38.60;34.40;;;;;;5068279;28;20388;-78
2023/09/11 09:39:41;;;;;;;12.18;4.10;;;38.90;34.70;;;;;;5066888;28;20119;-78
2023/09/11 09:42:07;;;;;;;12.88;4.38;;;38.90;34.80;;;;;;5068162;28;20599;-78
2023/09/11 09:44:40;;;;;;;11.52;4.00;;;38.80;34.60;;;;;;5066691;28;20123;-80
2023/09/11 09:47:10;;;;;;;12.75;4.13;;;38.70;33.30;;;;;;5067880;28;20028;-79
2023/09/11 09:49:53;;;;;;;5.90;3.60;;;38.80;33.90;;;;;;5068000;28;20021;-79
2023/09/11 09:52:20;;;;;;;15.70;3.80;;;39.20;33.00;;;;;;5070331;28;20418;-79
2023/09/11 09:54:50;;;;;;;21.10;4.18;;;39.30;33.30;;;;;;5071955;28;20074;-79
2023/09/11 09:57:21;;;;;;;9.60;3.63;;;39.30;33.10;;;;;;5071753;28;20052;-80
2023/09/11 09:59:53;;;;;;;15.07;4.32;;;39.40;32.50;;;;;;5071625;28;20039;-79
2023/09/11 10:02:30;;;;;;;11.48;3.78;;;39.30;32.80;;;;;;5070264;28;20500;-79
2023/09/11 10:04:57;;;;;;;10.73;3.95;;;39.50;31.30;;;;;;5070310;28;20050;-79
2023/09/11 10:07:41;;;;;;;9.60;3.55;;;39.30;31.80;;;;;;5071756;28;20113;-78
2023/09/11 10:10:27;;;;;;;14.30;3.30;;;39.10;32.70;;;;;;5070275;28;20461;-79
2023/09/11 10:13:07;;;;;;;17.65;4.03;;;39.30;31.50;;;;;;5071547;28;20063;-79
2023/09/11 10:15:35;;;;;;;8.30;3.22;;;39.00;30.90;;;;;;5071436;28;20126;-79
2023/09/11 10:18:02;;;;;;;13.60;3.83;;;38.70;32.40;;;;;;5071426;28;20047;-80
2023/09/11 10:20:28;;;;;;;16.17;4.15;;;38.70;33.10;;;;;;5070293;28;20027;-80
2023/09/11 10:22:56;;;;;;;9.45;4.32;;;38.30;34.00;;;;;;5071233;28;20035;-79
2023/09/11 10:25:22;;;;;;;15.77;3.85;;;37.60;34.30;;;;;;5071347;28;20040;-80
2023/09/11 10:28:16;;;;;;;11.73;3.80;;;36.70;34.60;;;;;;5071280;28;20523;-78
2023/09/11 10:30:55;;;;;;;9.50;3.95;;;36.10;35.10;;;;;;5059116;28;20040;-79
2023/09/11 10:33:24;;;;;;;11.07;4.43;;;35.10;37.20;;;;;;5069831;28;20185;-78
2023/09/11 10:35:58;;;;;;;11.52;3.83;;;34.50;37.80;;;;;;5069757;28;20115;-78
2023/09/11 10:38:30;;;;;;;12.73;3.95;;;34.00;37.60;;;;;;5091801;28;20024;-78
2023/09/11 10:40:58;;;;;;;13.05;4.00;;;33.60;39.50;;;;;;5098879;28;20508;-78
2023/09/11 10:43:24;;;;;;;10.52;3.72;;;33.50;40.50;;;;;;5099928;28;20492;-78
2023/09/11 10:45:51;;;;;;;6.35;3.50;;;33.40;40.70;;;;;;5100157;28;20052;-79
2023/09/11 10:48:32;;;;;;;9.43;3.40;;;33.30;40.40;;;;;;5099832;28;20051;-79
2023/09/11 10:50:59;;;;;;;9.25;4.03;;;33.00;39.60;;;;;;5095747;28;20032;-78
2023/09/11 10:53:29;;;;;;;6.90;3.67;;;32.90;40.00;;;;;;5099953;28;20400;-78
2023/09/11 10:55:57;;;;;;;8.20;3.95;;;32.90;40.80;;;;;;5095008;28;20548;-79
2023/09/11 10:58:25;;;;;;;8.98;3.72;;;32.80;41.10;;;;;;5101211;28;20016;-77
2023/09/11 11:00:56;;;;;;;7.30;3.83;;;32.70;40.90;;;;;;5101229;28;20531;-78
2023/09/11 11:03:29;;;;;;;7.85;3.55;;;32.60;41.30;;;;;;5097148;28;20032;-79
2023/09/11 11:05:57;;;;;;;8.27;3.83;;;32.60;42.50;;;;;;5070438;28;20115;-77
2023/09/11 11:08:23;;;;;;;6.47;3.50;;;32.50;39.80;;;;;;5069449;28;20059;-78
2023/09/11 11:10:56;;;;;;;9.63;3.83;;;32.40;40.10;;;;;;5086102;28;20465;-79
2023/09/11 11:13:23;;;;;;;9.35;3.15;;;32.40;39.50;;;;;;5069217;28;20135;-79
2023/09/11 11:16:08;;;;;;;8.68;3.35;;;32.20;39.80;;;;;;5068698;28;20045;-77
2023/09/11 11:18:34;;;;;;;7.90;3.28;;;32.30;40.80;;;;;;5070736;28;20086;-78
2023/09/11 11:21:00;;;;;;;6.57;3.05;;;32.10;40.90;;;;;;5068714;28;20501;-77
2023/09/11 11:23:29;;;;;;;6.78;3.25;;;32.10;40.40;;;;;;5080021;28;20114;-78
2023/09/11 11:25:58;;;;;;;6.40;3.20;;;31.90;38.90;;;;;;5088929;28;20036;-78
2023/09/11 11:28:24;;;;;;;9.80;3.47;;;31.90;39.70;;;;;;5088914;28;20464;-78
2023/09/11 11:30:53;;;;;;;10.35;4.10;;;32.00;40.20;;;;;;5090200;28;20476;-78
2023/09/11 11:33:24;;;;;;;8.20;3.10;;;31.90;40.70;;;;;;5089687;28;20035;-78
2023/09/11 11:35:52;;;;;;;12.60;3.42;;;31.80;39.40;;;;;;5088759;28;20431;-79
2023/09/11 11:38:19;;;;;;;8.63;3.75;;;31.80;40.30;;;;;;5088703;28;20044;-79
2023/09/11 11:40:46;;;;;;;10.35;4.00;;;31.80;40.60;;;;;;5088728;28;20024;-78
2023/09/11 11:43:12;;;;;;;9.60;3.60;;;31.80;40.10;;;;;;5088557;28;20563;-78
2023/09/11 11:45:43;;;;;;;13.77;4.22;;;31.80;40.80;;;;;;5088521;28;20063;-78
2023/09/11 11:48:12;;;;;;;13.23;3.05;;;31.70;40.20;;;;;;5089933;28;20079;-79
2023/09/11 11:50:45;;;;;;;9.05;3.55;;;31.70;40.80;;;;;;5088511;28;20466;-78
2023/09/11 11:53:16;;;;;;;11.45;4.13;;;31.70;41.60;;;;;;5089768;28;20034;-78
2023/09/11 11:55:42;;;;;;;19.38;3.90;;;31.70;40.30;;;;;;5090399;28;20390;-78
2023/09/11 11:58:09;;;;;;;6.43;3.38;;;31.60;40.40;;;;;;5088525;28;20571;-79
2023/09/11 12:00:36;;;;;;;6.55;3.00;;;31.60;40.80;;;;;;5089742;28;20028;-79
2023/09/11 12:03:09;;;;;;;10.57;4.18;;;31.60;40.90;;;;;;5088437;28;20032;-79
2023/09/11 12:05:36;;;;;;;14.45;3.33;;;31.70;42.00;;;;;;5088207;28;20107;-78
2023/09/11 12:08:03;;;;;;;10.63;3.40;;;31.70;40.80;;;;;;5088307;28;20544;-78
2023/09/11 12:10:29;;;;;;;13.23;3.55;;;31.70;39.00;;;;;;5089537;28;20067;-78
2023/09/11 12:12:55;;;;;;;8.60;3.20;;;31.70;40.40;;;;;;5089195;28;20059;-78
2023/09/11 12:15:21;;;;;;;9.65;3.47;;;31.70;40.80;;;;;;5088830;28;20501;-78
2023/09/11 12:17:49;;;;;;;10.15;3.55;;;31.70;41.50;;;;;;5089547;28;20028;-79
2023/09/11 12:20:20;;;;;;;12.32;3.30;;;31.70;40.70;;;;;;5087730;28;20039;-77
2023/09/11 12:22:47;;;;;;;11.27;3.60;;;31.70;40.50;;;;;;5089542;28;20032;-78
2023/09/11 12:25:14;;;;;;;10.93;3.25;;;31.60;40.50;;;;;;5089276;28;20024;-78
2023/09/11 12:27:43;;;;;;;10.95;2.97;;;31.60;40.50;;;;;;5087980;28;20085;-78
2023/09/11 12:30:10;;;;;;;8.57;3.88;;;31.60;40.30;;;;;;5089253;28;20063;-78
2023/09/11 12:32:35;;;;;;;11.23;3.22;;;31.60;40.00;;;;;;5087864;28;20040;-78
2023/09/11 12:35:02;;;;;;;11.98;3.70;;;31.60;39.40;;;;;;5089095;28;20066;-79
2023/09/11 12:37:29;;;;;;;11.45;2.88;;;31.50;39.20;;;;;;5089308;28;20466;-79